Terminal Aerodrome Forecast
Issued by NWS

Home | Current Version | Previous Version | Text Only | Print | Product List | Glossary On
Versions: 1 2 3 4 5 6 7 8 9 10 11 12 13 14 15 16 17 18 19 20
000
FTUS46 KMFR 172300
TAFOTH
TAF
KOTH 172339Z 1800/1824 26006KT P6SM VCSH FEW010 SCT040 OVC100
     FM180300 VRB04KT P6SM -SHRA FEW008 BKN035 OVC090
     FM181000 VRB04KT 6SM -SHRA BR FEW005 BKN035 OVC060
     FM182000 25007KT P6SM VCSH BKN040 BKN060=

USA.gov is the U.S. government's official web portal to all federal, state and local government web resources and services.